Pagrindinis puslapis
METAR-TAF:

METAR-TAF

Oro uostai :

Kermanšahas, Iranas

platuma: 34-16N, ilguma: 047-07E, Aukštis: 1320 m

Dabartinis oras

Ataskaita buvo paskelbta 14 minutes, ne 08:30 UTC
Vėjas 4 kt iš Vakarų/Šiaurės Vakarų
Temperatūra 26°C
Drėgmė 13%
Slėgis 1022 hPa
Matomumas: 8000 m
Mažai debesys ne aukštis 8000 ft

METAR: OICC 180830Z 29004KT 8000 FEW080 26/M05 Q1022 A3019 NOSIG

Laikas: 12:14 (08:44 UTC)


TAF: trūkstamas

Orai ataskaitas ir orų prognozės (METAR, TAF).

turimą stotys yra geltonos ir raudonos taškus žemėlapyje.

Perkelti pele per norėdami pamatyti stoties vardą.

Tada spustelėkite, norėdami matyti oro stebėjimo ir prognozės.

Norėdami pakeisti žemėlapį: spustelėkite ant žalios mygtukų su juodo kryžiaus žemyn,; žalią mygtuką su brūkšneliu, jei norite nutolinti; arba žalių rodyklių gretimoms žemėlapius.


METAR-TAF: